Terminal Aerodrome Forecast
Issued by NWS Twin Cities, MN

Home | Current Version | Previous Version | Text Only | Print | Product List | Glossary Off
Versions: 1 2 3 4 5 6 7 8 9 10 11 12 13 14 15 16 17

000
FTUS43 KMPX 231600 AAA
TAFEAU
TAF AMD
KEAU 231632Z 2317/2412 02008KT 2SM -SN BR OVC008
     FM232000 36008KT 4SM -SN BR OVC006
     FM240300 36007KT 6SM BR OVC004=

USA.gov is the U.S. government's official web portal to all federal, state and local government web resources and services.